Time;durP1;ratioP1;P1;durP2;ratioP2;P2;SDS_P1;SDS_P2;PMS_P1;PMS_P2;Temp;Humidity;BMP_temperature;BMP_pressure;BME280_temperature;BME280_humidity;BME280_pressure;Samples;Min_cycle;Max_cycle;Signal;HPM_P1;HPM_P2
2023/03/14 00:00:27;;;;;;;1.83;1.67;;;11.90;1.00;;;;;;5069149;28;20539;-81
2023/03/14 00:02:54;;;;;;;2.13;1.97;;;11.80;1.00;;;;;;5062991;28;20860;-82
2023/03/14 00:05:21;;;;;;;3.10;2.30;;;11.80;1.00;;;;;;5061292;28;20433;-82
2023/03/14 00:07:49;;;;;;;1.40;1.30;;;11.80;1.00;;;;;;5063325;28;20999;-81
2023/03/14 00:10:17;;;;;;;2.03;1.80;;;11.90;1.00;;;;;;5062148;28;20798;-83
2023/03/14 00:12:44;;;;;;;2.70;2.10;;;11.70;1.00;;;;;;5062446;28;20455;-83
2023/03/14 00:15:12;;;;;;;2.20;1.70;;;11.80;1.00;;;;;;5062240;28;20423;-82
2023/03/14 00:17:39;;;;;;;2.37;2.17;;;11.70;1.00;;;;;;5062440;28;20494;-81
2023/03/14 00:20:09;;;;;;;3.10;2.17;;;11.70;1.00;;;;;;5061870;28;20456;-81
2023/03/14 00:22:36;;;;;;;2.13;2.00;;;11.60;1.00;;;;;;5061657;28;20521;-81
2023/03/14 00:25:05;;;;;;;2.50;1.93;;;11.60;1.00;;;;;;5061486;28;20467;-81
2023/03/14 00:27:32;;;;;;;2.20;2.00;;;11.60;1.00;;;;;;5063240;28;20431;-81
2023/03/14 00:29:59;;;;;;;1.83;1.70;;;11.60;1.00;;;;;;5076168;28;20483;-81
2023/03/14 00:32:26;;;;;;;2.30;2.10;;;11.80;71.80;;;;;;5070422;28;20446;-81
2023/03/14 00:34:53;;;;;;;2.47;2.00;;;11.60;1.00;;;;;;5062216;28;20539;-81
2023/03/14 00:37:20;;;;;;;3.53;1.90;;;11.30;99.90;;;;;;5075824;28;20494;-80
2023/03/14 00:39:47;;;;;;;1.80;1.70;;;11.50;25.90;;;;;;5081392;28;20418;-79
2023/03/14 00:42:15;;;;;;;2.07;1.77;;;11.50;49.90;;;;;;5081490;28;20423;-80
2023/03/14 00:44:42;;;;;;;5.17;2.00;;;11.50;78.60;;;;;;5068323;28;20551;-81
2023/03/14 00:47:09;;;;;;;2.03;1.93;;;11.50;92.10;;;;;;5073943;28;20468;-81
2023/03/14 00:49:36;;;;;;;2.93;1.47;;;11.40;99.90;;;;;;5074563;28;20475;-81
2023/03/14 00:52:03;;;;;;;1.60;1.50;;;11.40;99.90;;;;;;5066210;28;20531;-81
2023/03/14 00:54:30;;;;;;;1.40;1.30;;;11.40;99.90;;;;;;5069284;28;20542;-80
2023/03/14 00:56:57;;;;;;;1.60;1.50;;;11.40;99.90;;;;;;5072959;28;20452;-79
2023/03/14 00:59:25;;;;;;;1.50;1.40;;;11.40;99.90;;;;;;5070949;28;20534;-79
2023/03/14 01:01:54;;;;;;;2.47;1.37;;;11.30;99.90;;;;;;5072228;28;20516;-79
2023/03/14 01:04:21;;;;;;;1.93;1.83;;;11.30;99.90;;;;;;5073053;28;20462;-80
2023/03/14 01:06:47;;;;;;;3.80;1.60;;;11.30;99.90;;;;;;5072727;28;20482;-80
2023/03/14 01:09:16;;;;;;;2.00;1.90;;;11.20;99.90;;;;;;5070998;28;20452;-79
2023/03/14 01:11:46;;;;;;;1.80;1.70;;;11.20;99.90;;;;;;5066706;28;20518;-79
2023/03/14 01:14:13;;;;;;;2.60;2.40;;;11.20;99.90;;;;;;5061490;28;20473;-80
2023/03/14 01:16:41;;;;;;;3.37;2.57;;;11.10;99.90;;;;;;5060788;28;20525;-80
2023/03/14 01:19:08;;;;;;;1.73;1.63;;;11.10;99.90;;;;;;5059752;28;20625;-80
2023/03/14 01:21:36;;;;;;;2.50;2.20;;;11.10;99.90;;;;;;5061243;28;21063;-80
2023/03/14 01:24:05;;;;;;;5.07;3.13;;;11.10;99.90;;;;;;5066201;28;20463;-80
2023/03/14 01:26:33;;;;;;;4.43;3.57;;;11.10;99.90;;;;;;5065430;28;20486;-80
2023/03/14 01:29:01;;;;;;;7.33;3.77;;;11.10;99.90;;;;;;5063317;28;20451;-80
2023/03/14 01:31:28;;;;;;;2.00;1.80;;;11.20;99.90;;;;;;5061202;28;20475;-80
2023/03/14 01:33:56;;;;;;;1.67;1.57;;;11.10;99.90;;;;;;5060299;28;20471;-80
2023/03/14 01:36:23;;;;;;;2.10;2.00;;;11.20;99.90;;;;;;5059618;28;20914;-80
2023/03/14 01:38:50;;;;;;;1.63;1.13;;;11.20;99.90;;;;;;5059617;28;20574;-80
2023/03/14 01:41:19;;;;;;;2.93;1.53;;;11.20;99.90;;;;;;5059756;28;20462;-80
2023/03/14 01:43:46;;;;;;;2.70;2.07;;;11.20;99.90;;;;;;5060014;28;20860;-81
2023/03/14 01:46:29;;;;;;;1.43;1.33;;;11.30;99.90;;;;;;5059673;28;20452;-80
2023/03/14 01:49:06;;;;;;;1.53;1.43;;;11.30;99.90;;;;;;5058976;28;20431;-81
2023/03/14 01:51:40;;;;;;;1.57;1.47;;;11.30;99.90;;;;;;5059128;28;20507;-80
2023/03/14 01:54:15;;;;;;;1.73;1.63;;;11.30;99.90;;;;;;5058515;28;20549;-80
2023/03/14 01:56:45;;;;;;;2.20;1.63;;;11.60;99.90;;;;;;5058857;28;20515;-80
2023/03/14 01:59:12;;;;;;;2.70;1.63;;;11.30;99.90;;;;;;5058086;28;20484;-81
2023/03/14 02:01:42;;;;;;;2.20;1.40;;;11.30;99.90;;;;;;5059722;28;20456;-81
2023/03/14 02:04:10;;;;;;;1.60;1.50;;;11.30;99.90;;;;;;5070013;28;20443;-80
2023/03/14 02:06:45;;;;;;;1.90;1.37;;;11.20;99.90;;;;;;5069912;28;20467;-80
2023/03/14 02:09:12;;;;;;;1.57;1.47;;;11.20;99.90;;;;;;5068680;28;20825;-81
2023/03/14 02:11:40;;;;;;;1.90;1.80;;;11.20;99.90;;;;;;5060207;28;20534;-80
2023/03/14 02:14:08;;;;;;;2.00;1.80;;;11.20;99.90;;;;;;5059161;28;20583;-80
2023/03/14 02:16:36;;;;;;;1.27;1.17;;;11.10;99.90;;;;;;5058291;28;20452;-80
2023/03/14 02:19:04;;;;;;;2.53;1.67;;;11.10;99.90;;;;;;5059725;28;20457;-80
2023/03/14 02:21:50;;;;;;;1.80;1.50;;;11.00;99.90;;;;;;5069729;28;20452;-80
2023/03/14 02:24:22;;;;;;;1.70;1.60;;;11.00;99.90;;;;;;5068280;28;20507;-79
2023/03/14 02:27:08;;;;;;;1.60;1.50;;;11.00;99.90;;;;;;5059995;28;20822;-81
2023/03/14 02:29:38;;;;;;;2.10;1.70;;;11.00;99.90;;;;;;5058240;28;20451;-81
2023/03/14 02:32:06;;;;;;;1.20;1.10;;;11.00;99.90;;;;;;5062566;28;20516;-81
2023/03/14 02:34:34;;;;;;;2.80;1.50;;;11.00;99.90;;;;;;5059301;28;20458;-80
2023/03/14 02:37:02;;;;;;;1.73;1.40;;;11.00;99.90;;;;;;5059233;28;20452;-80
2023/03/14 02:39:36;;;;;;;1.50;1.40;;;11.00;99.90;;;;;;5060705;28;20481;-80
2023/03/14 02:42:04;;;;;;;1.60;1.40;;;11.00;99.90;;;;;;5058746;28;20526;-81
2023/03/14 02:44:31;;;;;;;1.37;1.27;;;11.00;99.90;;;;;;5057960;28;20485;-81
2023/03/14 02:46:58;;;;;;;1.70;1.60;;;11.10;99.90;;;;;;5063153;28;20445;-81
2023/03/14 02:49:28;;;;;;;1.77;1.47;;;11.10;99.90;;;;;;5065809;28;20507;-80
2023/03/14 02:51:54;;;;;;;1.27;1.17;;;11.10;99.90;;;;;;5063030;28;20454;-81
2023/03/14 02:54:21;;;;;;;1.83;1.40;;;11.20;99.90;;;;;;5072115;28;20499;-81
2023/03/14 02:56:48;;;;;;;1.30;1.20;;;11.10;99.90;;;;;;5072332;28;20458;-81
2023/03/14 02:59:16;;;;;;;1.73;1.63;;;11.10;99.90;;;;;;5071001;28;20504;-81
2023/03/14 03:01:43;;;;;;;1.83;1.37;;;11.10;99.90;;;;;;5071235;28;20451;-81
2023/03/14 03:04:10;;;;;;;1.70;1.60;;;11.00;99.90;;;;;;5071028;28;20486;-81
2023/03/14 03:06:37;;;;;;;1.30;1.20;;;11.00;99.90;;;;;;5065026;28;20508;-81
2023/03/14 03:09:04;;;;;;;1.60;1.30;;;11.00;99.90;;;;;;5059854;28;20447;-81
2023/03/14 03:11:31;;;;;;;1.73;1.47;;;11.00;99.90;;;;;;5068967;28;20429;-81
2023/03/14 03:13:58;;;;;;;1.30;1.20;;;10.90;99.90;;;;;;5073225;28;20467;-81
2023/03/14 03:16:26;;;;;;;2.60;2.07;;;11.00;99.90;;;;;;5066144;28;20456;-81
2023/03/14 03:18:53;;;;;;;1.70;1.50;;;11.00;99.90;;;;;;5068559;28;20521;-81
2023/03/14 03:21:23;;;;;;;1.97;1.33;;;11.00;99.90;;;;;;5073000;28;20443;-81
2023/03/14 03:23:50;;;;;;;2.13;1.23;;;11.10;99.90;;;;;;5067174;28;20467;-81
2023/03/14 03:26:17;;;;;;;1.87;1.10;;;10.90;99.90;;;;;;5061283;28;20482;-81
2023/03/14 03:28:44;;;;;;;2.37;1.50;;;10.80;99.90;;;;;;5059621;28;20466;-82
2023/03/14 03:31:12;;;;;;;1.70;1.30;;;10.90;99.90;;;;;;5059629;28;20475;-81
2023/03/14 03:33:40;;;;;;;4.13;1.70;;;10.90;99.90;;;;;;5057777;28;20518;-80
2023/03/14 03:36:09;;;;;;;1.83;1.73;;;10.70;99.90;;;;;;5070293;28;20490;-81
2023/03/14 03:38:36;;;;;;;1.67;1.57;;;10.90;99.90;;;;;;5076214;28;20480;-81
2023/03/14 03:41:05;;;;;;;1.40;1.30;;;10.90;99.90;;;;;;5072495;28;20511;-79
2023/03/14 03:43:32;;;;;;;3.27;1.57;;;10.90;99.90;;;;;;5073306;28;20470;-80
2023/03/14 03:45:59;;;;;;;1.80;1.13;;;10.90;99.90;;;;;;5073846;28;20494;-81
2023/03/14 03:48:26;;;;;;;1.50;1.40;;;10.80;99.90;;;;;;5073585;28;20508;-81
2023/03/14 03:50:54;;;;;;;2.10;1.67;;;10.80;99.90;;;;;;5068313;28;20471;-80
2023/03/14 03:53:21;;;;;;;1.77;1.67;;;10.80;99.90;;;;;;5069647;28;20502;-81
2023/03/14 03:55:48;;;;;;;2.87;1.80;;;10.70;99.90;;;;;;5067763;28;20424;-81
2023/03/14 03:58:15;;;;;;;2.60;1.60;;;10.70;99.90;;;;;;5063596;28;20485;-81
2023/03/14 04:00:42;;;;;;;1.40;1.20;;;10.70;99.90;;;;;;5061877;28;20451;-80
2023/03/14 04:03:08;;;;;;;1.70;1.23;;;10.70;99.90;;;;;;5060768;28;20467;-80
2023/03/14 04:05:35;;;;;;;1.43;1.33;;;10.70;99.90;;;;;;5061106;28;20454;-81
2023/03/14 04:08:05;;;;;;;1.57;1.47;;;10.70;99.90;;;;;;5061459;28;20461;-80
2023/03/14 04:10:35;;;;;;;1.73;1.63;;;10.50;99.90;;;;;;5061662;28;20534;-80
2023/03/14 04:13:02;;;;;;;1.70;1.33;;;10.70;99.90;;;;;;5071293;28;20474;-80
2023/03/14 04:15:28;;;;;;;2.30;2.10;;;10.70;99.90;;;;;;5070630;28;20450;-80
2023/03/14 04:17:57;;;;;;;1.40;1.30;;;10.60;99.90;;;;;;5070457;28;20458;-80
2023/03/14 04:20:24;;;;;;;2.03;1.83;;;10.60;99.90;;;;;;5069768;28;20471;-80
2023/03/14 04:22:51;;;;;;;1.70;1.60;;;10.70;99.90;;;;;;5062766;28;20451;-80
2023/03/14 04:25:19;;;;;;;1.53;1.43;;;10.60;99.90;;;;;;5061933;28;20490;-81
2023/03/14 04:27:47;;;;;;;1.27;1.17;;;10.60;99.90;;;;;;5061830;28;20481;-79
2023/03/14 04:30:14;;;;;;;1.50;1.40;;;10.60;99.90;;;;;;5060735;28;20449;-80
2023/03/14 04:32:41;;;;;;;3.07;1.80;;;;;;;;;;5061959;28;20527;-81
2023/03/14 04:35:08;;;;;;;2.30;1.40;;;10.00;99.90;;;;;;5061351;28;20458;-80
2023/03/14 04:37:35;;;;;;;1.67;1.57;;;10.60;99.90;;;;;;5061066;28;20437;-80
2023/03/14 04:40:06;;;;;;;2.10;1.10;;;10.60;99.90;;;;;;5060219;28;20537;-80
2023/03/14 04:42:34;;;;;;;2.93;2.23;;;10.60;99.90;;;;;;5062090;28;20406;-81
2023/03/14 04:45:01;;;;;;;3.63;1.30;;;10.60;99.90;;;;;;5060512;28;20471;-80
2023/03/14 04:47:28;;;;;;;2.10;1.90;;;10.60;99.90;;;;;;5060282;28;20429;-81
2023/03/14 04:49:54;;;;;;;1.90;1.67;;;10.60;99.90;;;;;;5065589;28;20436;-80
2023/03/14 04:52:21;;;;;;;2.07;1.80;;;10.60;99.90;;;;;;5067710;28;20477;-82
2023/03/14 04:54:48;;;;;;;1.73;1.63;;;10.60;99.90;;;;;;5062500;28;20480;-79
2023/03/14 04:57:15;;;;;;;1.57;1.47;;;10.60;99.90;;;;;;5061794;28;20474;-81
2023/03/14 04:59:43;;;;;;;2.20;1.33;;;10.60;99.90;;;;;;5070082;28;20483;-80
2023/03/14 05:02:10;;;;;;;2.20;2.00;;;10.50;99.90;;;;;;5070441;28;20458;-80
2023/03/14 05:04:37;;;;;;;1.57;1.47;;;10.60;99.90;;;;;;5071423;28;20554;-80
2023/03/14 05:07:04;;;;;;;1.43;1.33;;;10.50;99.90;;;;;;5072185;28;20445;-81
2023/03/14 05:09:31;;;;;;;3.77;1.97;;;10.50;99.90;;;;;;5069666;28;20446;-80
2023/03/14 05:11:57;;;;;;;1.80;1.70;;;10.60;99.90;;;;;;5073719;28;20514;-81
2023/03/14 05:14:24;;;;;;;1.97;1.87;;;10.60;99.90;;;;;;5073016;28;20908;-81
2023/03/14 05:16:52;;;;;;;1.50;1.40;;;10.60;95.60;;;;;;5073061;28;20508;-80
2023/03/14 05:19:19;;;;;;;3.20;1.70;;;10.60;64.70;;;;;;5067471;28;20476;-80
2023/03/14 05:21:46;;;;;;;1.70;1.60;;;10.60;63.50;;;;;;5061591;28;20452;-81
2023/03/14 05:24:13;;;;;;;1.57;1.47;;;10.60;40.00;;;;;;5061253;28;20475;-81
2023/03/14 05:26:40;;;;;;;1.50;1.40;;;10.60;23.10;;;;;;5077398;28;20456;-80
2023/03/14 05:29:07;;;;;;;1.60;1.50;;;10.60;1.00;;;;;;5080370;28;20448;-80
2023/03/14 05:31:33;;;;;;;4.03;1.97;;;10.60;1.00;;;;;;5074883;28;20615;-80
2023/03/14 05:34:02;;;;;;;2.97;1.30;;;10.60;1.00;;;;;;5057322;28;20470;-80
2023/03/14 05:36:28;;;;;;;1.60;1.50;;;10.70;1.00;;;;;;5057932;28;20447;-80
2023/03/14 05:38:55;;;;;;;1.80;1.70;;;10.70;1.00;;;;;;5057929;28;20515;-81
2023/03/14 05:41:23;;;;;;;2.13;1.80;;;10.70;1.00;;;;;;5064678;28;20449;-80
2023/03/14 05:43:50;;;;;;;2.00;1.80;;;10.60;1.00;;;;;;5059382;28;20468;-82
2023/03/14 05:46:17;;;;;;;2.60;1.73;;;10.80;1.00;;;;;;5058633;28;20430;-82
2023/03/14 05:48:44;;;;;;;2.80;1.80;;;10.70;1.00;;;;;;5058517;28;20439;-82
2023/03/14 05:51:12;;;;;;;1.50;1.40;;;10.70;1.00;;;;;;5060298;28;20451;-82
2023/03/14 05:53:39;;;;;;;1.73;1.63;;;10.70;1.00;;;;;;5058199;28;20830;-81
2023/03/14 05:56:07;;;;;;;1.30;1.20;;;10.70;1.00;;;;;;5059727;28;20448;-82
2023/03/14 05:58:33;;;;;;;1.97;1.70;;;10.80;1.00;;;;;;5060140;28;20451;-81
2023/03/14 06:01:03;;;;;;;1.70;1.43;;;10.80;1.00;;;;;;5060424;28;20437;-81
2023/03/14 06:03:29;;;;;;;4.50;2.10;;;10.50;1.00;;;;;;5059640;28;20911;-82
2023/03/14 06:05:56;;;;;;;3.60;1.90;;;10.80;1.00;;;;;;5060094;28;20287;-83
2023/03/14 06:08:25;;;;;;;9.17;5.33;;;10.80;1.00;;;;;;5060453;28;20527;-82
2023/03/14 06:10:52;;;;;;;1.90;1.67;;;10.80;1.00;;;;;;5061538;28;20448;-82
2023/03/14 06:13:19;;;;;;;1.77;1.50;;;10.90;99.90;;;;;;5059569;28;20451;-81
2023/03/14 06:15:45;;;;;;;7.33;2.30;;;10.90;99.90;;;;;;5059270;28;20426;-82
2023/03/14 06:18:13;;;;;;;1.70;1.60;;;11.10;99.90;;;;;;5064558;28;20414;-82
2023/03/14 06:20:40;;;;;;;2.13;1.97;;;11.10;99.90;;;;;;5068318;28;20469;-81
2023/03/14 06:23:08;;;;;;;2.70;1.60;;;11.00;99.90;;;;;;5068949;28;20495;-81
2023/03/14 06:25:37;;;;;;;3.83;1.70;;;11.00;99.90;;;;;;5069622;28;20432;-82
2023/03/14 06:28:04;;;;;;;3.07;1.90;;;11.00;99.90;;;;;;5079098;28;20482;-81
2023/03/14 06:30:31;;;;;;;1.77;1.50;;;11.10;99.90;;;;;;5065255;28;20549;-82
2023/03/14 06:32:57;;;;;;;2.50;1.67;;;11.30;99.90;;;;;;5059138;28;20452;-82
2023/03/14 06:35:24;;;;;;;8.20;1.73;;;11.00;99.90;;;;;;5059852;28;20454;-81
2023/03/14 06:37:51;;;;;;;10.80;3.07;;;11.10;99.90;;;;;;5060806;28;20425;-81
2023/03/14 06:40:18;;;;;;;12.43;2.50;;;11.10;99.90;;;;;;5060845;28;20570;-82
2023/03/14 06:42:47;;;;;;;6.93;1.30;;;11.40;99.90;;;;;;5059498;28;20593;-82
2023/03/14 06:45:14;;;;;;;5.13;2.33;;;11.20;57.50;;;;;;5059356;28;20450;-82
2023/03/14 06:47:40;;;;;;;2.57;2.00;;;11.30;35.00;;;;;;5066108;28;20449;-82
2023/03/14 06:50:09;;;;;;;5.17;3.27;;;11.30;24.60;;;;;;5063254;28;20944;-81
2023/03/14 06:52:36;;;;;;;5.33;2.53;;;11.30;14.60;;;;;;5065578;28;20490;-81
2023/03/14 06:55:03;;;;;;;3.03;1.47;;;11.30;2.60;;;;;;5069465;28;20446;-81
2023/03/14 06:57:30;;;;;;;4.43;1.93;;;11.30;1.60;;;;;;5068665;28;20454;-81
2023/03/14 06:59:58;;;;;;;5.30;2.43;;;11.30;1.00;;;;;;5070020;28;20517;-81
2023/03/14 07:02:25;;;;;;;8.63;2.30;;;11.30;1.00;;;;;;5070862;28;20520;-80
2023/03/14 07:04:52;;;;;;;5.23;2.40;;;11.30;1.00;;;;;;5062745;28;20463;-80
2023/03/14 07:07:18;;;;;;;3.40;1.70;;;11.30;1.00;;;;;;5061323;28;20451;-81
2023/03/14 07:09:45;;;;;;;12.10;3.57;;;11.40;1.00;;;;;;5064459;28;20444;-81
2023/03/14 07:12:12;;;;;;;4.20;2.30;;;11.50;1.00;;;;;;5063148;28;20847;-81
2023/03/14 07:14:39;;;;;;;3.87;1.83;;;11.50;1.00;;;;;;5060026;28;20496;-81
2023/03/14 07:17:07;;;;;;;1.60;1.50;;;11.50;1.00;;;;;;5058312;28;20459;-81
2023/03/14 07:19:34;;;;;;;2.00;1.40;;;11.50;1.00;;;;;;5058618;28;20940;-80
2023/03/14 07:22:01;;;;;;;2.03;1.90;;;11.50;99.90;;;;;;5058011;28;20423;-82
2023/03/14 07:24:27;;;;;;;4.00;1.63;;;11.50;99.90;;;;;;5058075;28;20953;-82
2023/03/14 07:26:54;;;;;;;2.40;1.83;;;11.50;1.00;;;;;;5058996;28;20535;-80
2023/03/14 07:29:21;;;;;;;1.70;1.60;;;11.50;1.00;;;;;;5059906;28;20513;-81
2023/03/14 07:31:48;;;;;;;4.50;1.87;;;11.50;14.30;;;;;;5059994;28;20935;-82
2023/03/14 07:34:16;;;;;;;1.77;1.47;;;11.50;48.50;;;;;;5058061;28;20554;-81
2023/03/14 07:36:43;;;;;;;6.20;2.07;;;11.50;24.30;;;;;;5058125;28;20456;-81
2023/03/14 07:39:10;;;;;;;3.63;2.10;;;11.50;1.00;;;;;;5058845;28;20514;-81
2023/03/14 07:41:37;;;;;;;6.53;2.67;;;11.50;1.00;;;;;;5057878;28;20487;-81
2023/03/14 07:44:03;;;;;;;5.63;2.30;;;11.50;1.00;;;;;;5058596;28;20907;-81
2023/03/14 07:46:30;;;;;;;4.13;1.90;;;11.60;1.00;;;;;;5059398;28;20512;-81
2023/03/14 07:48:57;;;;;;;4.97;3.93;;;11.50;1.00;;;;;;5060755;28;20426;-81
2023/03/14 07:51:25;;;;;;;4.70;2.00;;;11.50;1.00;;;;;;5063384;28;20440;-81
2023/03/14 07:53:52;;;;;;;1.97;1.57;;;11.40;1.00;;;;;;5059959;28;20479;-82
2023/03/14 07:56:19;;;;;;;1.73;1.63;;;11.40;1.00;;;;;;5058803;28;20551;-82
2023/03/14 07:58:46;;;;;;;6.37;1.90;;;11.50;1.00;;;;;;5058397;28;20780;-81
2023/03/14 08:01:12;;;;;;;3.00;2.13;;;11.50;1.00;;;;;;5062656;28;20484;-82
2023/03/14 08:03:39;;;;;;;2.20;1.53;;;11.60;1.00;;;;;;5058619;28;21049;-82
2023/03/14 08:06:07;;;;;;;4.93;1.97;;;11.60;99.90;;;;;;5058604;28;20544;-81
2023/03/14 08:08:35;;;;;;;6.97;2.10;;;11.80;99.90;;;;;;5058849;28;20454;-82
2023/03/14 08:11:05;;;;;;;1.80;1.70;;;11.80;99.90;;;;;;5062956;28;20487;-81
2023/03/14 08:13:32;;;;;;;1.73;1.30;;;12.00;99.90;;;;;;5063533;28;20483;-81
2023/03/14 08:15:59;;;;;;;2.40;1.83;;;12.00;88.90;;;;;;5064223;28;20447;-81
2023/03/14 08:18:26;;;;;;;3.40;2.67;;;12.00;94.00;;;;;;5066244;28;20452;-81
2023/03/14 08:20:53;;;;;;;5.27;1.77;;;;;;;;;;5066608;28;20582;-81
2023/03/14 08:23:20;;;;;;;2.70;1.60;;;12.10;1.00;;;;;;5071839;28;20530;-80
2023/03/14 08:25:50;;;;;;;3.50;1.80;;;12.10;1.00;;;;;;5071065;28;20483;-80
2023/03/14 08:28:17;;;;;;;5.10;1.80;;;12.20;1.00;;;;;;5074813;28;20493;-80
2023/03/14 08:30:44;;;;;;;2.73;1.50;;;12.10;99.90;;;;;;5073493;28;20452;-80
2023/03/14 08:33:11;;;;;;;6.23;2.13;;;12.20;92.30;;;;;;5067696;28;20474;-81
2023/03/14 08:35:39;;;;;;;8.40;2.50;;;12.20;1.00;;;;;;5063952;28;20520;-82
2023/03/14 08:38:06;;;;;;;5.30;3.10;;;12.10;1.00;;;;;;5062656;28;20477;-82
2023/03/14 08:40:32;;;;;;;3.40;2.30;;;12.10;83.80;;;;;;5064817;28;20485;-81
2023/03/14 08:43:02;;;;;;;4.27;2.13;;;12.20;99.90;;;;;;5063413;28;20449;-81
2023/03/14 08:45:29;;;;;;;4.10;1.60;;;12.10;1.00;;;;;;5065706;28;20539;-80
2023/03/14 08:47:55;;;;;;;13.73;3.17;;;12.10;99.90;;;;;;5061398;28;20448;-80
2023/03/14 08:50:24;;;;;;;2.90;1.80;;;12.30;30.40;;;;;;5063250;28;20445;-80
2023/03/14 08:52:50;;;;;;;7.10;2.10;;;12.10;77.80;;;;;;5071087;28;20505;-81
2023/03/14 08:55:17;;;;;;;5.53;1.63;;;12.30;1.00;;;;;;5071858;28;20450;-80
2023/03/14 08:57:44;;;;;;;5.00;1.80;;;12.30;1.00;;;;;;5073001;28;20860;-81
2023/03/14 09:00:15;;;;;;;2.93;1.50;;;12.30;1.00;;;;;;5072221;28;20555;-81
2023/03/14 09:02:42;;;;;;;3.60;1.80;;;12.40;1.00;;;;;;5073014;28;20499;-80
2023/03/14 09:05:10;;;;;;;1.63;1.53;;;12.30;1.00;;;;;;5071090;28;20453;-80
2023/03/14 09:07:37;;;;;;;3.33;1.60;;;12.30;1.00;;;;;;5063558;28;20534;-80
2023/03/14 09:10:04;;;;;;;3.77;1.50;;;12.40;1.00;;;;;;5064732;28;20419;-80
2023/03/14 09:12:31;;;;;;;6.47;3.20;;;12.70;1.00;;;;;;5062666;28;20532;-81
2023/03/14 09:14:58;;;;;;;5.30;3.40;;;12.60;1.00;;;;;;5061486;28;20439;-82
2023/03/14 09:17:26;;;;;;;4.60;1.83;;;12.70;1.00;;;;;;5062632;28;20444;-80
2023/03/14 09:19:53;;;;;;;3.87;1.90;;;12.80;99.90;;;;;;5062501;28;20490;-82
2023/03/14 09:22:20;;;;;;;5.10;3.87;;;12.80;99.90;;;;;;5061519;28;20812;-84
2023/03/14 09:24:47;;;;;;;4.07;1.63;;;12.90;99.90;;;;;;5061633;28;20500;-82
2023/03/14 09:27:14;;;;;;;5.80;2.13;;;12.90;99.90;;;;;;5061481;28;20452;-82
2023/03/14 09:29:43;;;;;;;4.17;1.80;;;12.80;99.90;;;;;;5061987;28;20502;-81
2023/03/14 09:32:10;;;;;;;2.80;1.97;;;13.10;1.00;;;;;;5063067;28;20535;-80
2023/03/14 09:34:38;;;;;;;6.40;3.13;;;12.90;99.90;;;;;;5061650;28;20471;-80
2023/03/14 09:37:05;;;;;;;2.00;1.90;;;13.00;99.90;;;;;;5060753;28;20454;-80
2023/03/14 09:39:32;;;;;;;3.37;1.70;;;13.10;99.90;;;;;;5065580;28;20490;-80
2023/03/14 09:42:04;;;;;;;6.53;2.20;;;13.10;99.90;;;;;;5079374;28;20443;-80
2023/03/14 09:44:33;;;;;;;5.40;2.33;;;13.20;99.90;;;;;;5067228;28;20534;-79
2023/03/14 09:47:05;;;;;;;8.47;3.10;;;13.40;99.90;;;;;;5062371;28;20456;-81
2023/03/14 09:49:35;;;;;;;1.73;1.63;;;13.50;52.80;;;;;;5061422;28;20467;-80
2023/03/14 09:52:11;;;;;;;3.03;1.80;;;13.50;50.30;;;;;;5060476;28;20468;-81
2023/03/14 09:54:42;;;;;;;3.10;1.90;;;13.50;42.90;;;;;;5060094;28;20480;-81
2023/03/14 09:57:14;;;;;;;4.97;1.50;;;13.40;33.50;;;;;;5061386;28;20440;-81
2023/03/14 09:59:44;;;;;;;4.93;2.33;;;13.40;47.50;;;;;;5061433;28;20521;-81
2023/03/14 10:02:18;;;;;;;3.73;2.87;;;13.40;99.60;;;;;;5060223;28;20431;-82
2023/03/14 10:04:46;;;;;;;6.67;1.80;;;13.30;33.20;;;;;;5060731;28;20476;-81
2023/03/14 10:07:19;;;;;;;2.80;1.67;;;13.30;40.40;;;;;;5069948;28;20436;-78
2023/03/14 10:09:48;;;;;;;2.90;1.80;;;13.20;5.20;;;;;;5079567;28;20413;-79
2023/03/14 10:12:15;;;;;;;6.60;2.17;;;13.30;99.60;;;;;;5079603;28;20488;-79
2023/03/14 10:14:49;;;;;;;3.27;1.90;;;13.20;13.20;;;;;;5067612;28;20555;-80
2023/03/14 10:17:17;;;;;;;4.00;1.97;;;13.20;6.90;;;;;;5059526;28;20440;-80
2023/03/14 10:19:55;;;;;;;5.17;1.90;;;13.20;5.30;;;;;;5061451;28;20423;-80
2023/03/14 10:22:25;;;;;;;6.23;2.20;;;13.20;1.00;;;;;;5061735;28;20821;-81
2023/03/14 10:24:54;;;;;;;5.70;3.73;;;13.20;3.00;;;;;;5063209;28;20468;-80
2023/03/14 10:27:23;;;;;;;4.73;2.60;;;13.30;1.00;;;;;;5065203;28;20558;-81
2023/03/14 10:29:55;;;;;;;3.33;3.03;;;13.40;61.10;;;;;;5060018;28;20445;-80
2023/03/14 10:32:28;;;;;;;2.70;1.67;;;13.30;1.00;;;;;;5060122;28;20416;-80
2023/03/14 10:35:23;;;;;;;4.93;1.50;;;13.20;1.00;;;;;;5058403;28;20879;-80
2023/03/14 10:37:58;;;;;;;1.70;1.10;;;13.20;1.00;;;;;;5060315;28;20429;-80
2023/03/14 10:40:29;;;;;;;5.53;1.77;;;13.20;1.00;;;;;;5059587;28;20898;-81
2023/03/14 10:42:56;;;;;;;2.03;1.50;;;13.00;99.90;;;;;;5058985;28;20483;-81
2023/03/14 10:45:31;;;;;;;1.93;1.50;;;13.20;1.00;;;;;;5059415;28;20490;-81
2023/03/14 10:48:00;;;;;;;3.43;1.43;;;13.20;1.00;;;;;;5059039;28;20439;-81
2023/03/14 10:50:29;;;;;;;2.50;1.60;;;13.10;1.00;;;;;;5059286;28;20527;-80
2023/03/14 10:52:58;;;;;;;3.97;2.40;;;13.20;99.90;;;;;;5058595;28;20448;-80
2023/03/14 10:55:26;;;;;;;2.97;1.80;;;13.10;1.00;;;;;;5059171;28;20448;-81
2023/03/14 10:57:54;;;;;;;5.97;3.40;;;13.10;20.40;;;;;;5058717;28;20444;-80
2023/03/14 11:00:23;;;;;;;3.83;1.70;;;13.10;1.00;;;;;;5058769;28;20480;-80
2023/03/14 11:03:09;;;;;;;3.73;2.30;;;12.80;99.90;;;;;;5058992;28;20505;-80
2023/03/14 11:05:42;;;;;;;5.47;2.27;;;13.10;17.80;;;;;;5058501;28;20433;-80
2023/03/14 11:08:20;;;;;;;3.00;2.20;;;13.10;1.00;;;;;;5057987;28;20819;-80
2023/03/14 11:10:50;;;;;;;4.63;1.80;;;13.20;1.00;;;;;;5065072;28;20456;-80
2023/03/14 11:13:23;;;;;;;5.50;1.87;;;13.20;1.00;;;;;;5064460;28;20894;-79
2023/03/14 11:15:59;;;;;;;4.27;2.80;;;13.30;1.00;;;;;;5065540;28;20433;-80
2023/03/14 11:18:47;;;;;;;2.73;2.47;;;13.40;1.00;;;;;;5058489;28;20438;-79
2023/03/14 11:21:16;;;;;;;2.10;1.33;;;13.40;1.00;;;;;;5058447;28;20472;-81
2023/03/14 11:23:56;;;;;;;3.77;2.43;;;13.40;1.00;;;;;;5059535;28;20465;-80
2023/03/14 11:26:33;;;;;;;5.10;1.80;;;13.30;1.00;;;;;;5057820;28;20459;-81
2023/03/14 11:29:12;;;;;;;1.93;1.70;;;13.30;2.80;;;;;;5058236;28;20513;-80
2023/03/14 11:31:44;;;;;;;5.13;1.90;;;13.40;18.50;;;;;;5057049;28;20434;-80
2023/03/14 11:34:17;;;;;;;4.63;3.80;;;13.40;3.50;;;;;;5057143;28;20836;-79
2023/03/14 11:36:52;;;;;;;3.30;1.67;;;13.50;1.00;;;;;;5058545;28;20443;-80
2023/03/14 11:39:21;;;;;;;7.47;3.97;;;13.50;1.00;;;;;;5060660;28;20432;-79
2023/03/14 11:41:51;;;;;;;2.60;2.40;;;13.50;1.00;;;;;;5061512;28;20494;-80
2023/03/14 11:44:20;;;;;;;2.47;2.27;;;13.50;19.40;;;;;;5060244;28;20932;-80
2023/03/14 11:46:53;;;;;;;2.47;1.60;;;13.40;57.30;;;;;;5058928;28;20449;-79
2023/03/14 11:49:31;;;;;;;3.43;1.90;;;13.40;99.90;;;;;;5060173;28;20448;-80
2023/03/14 11:52:03;;;;;;;2.20;1.83;;;13.40;99.90;;;;;;5057689;28;20431;-80
2023/03/14 11:54:38;;;;;;;2.37;1.80;;;13.40;99.90;;;;;;5056097;28;20587;-79
2023/03/14 11:57:11;;;;;;;3.73;2.10;;;13.40;99.90;;;;;;5058354;28;20442;-79
2023/03/14 11:59:48;;;;;;;3.73;1.90;;;13.50;99.90;;;;;;5059843;28;20753;-79
2023/03/14 12:02:22;;;;;;;2.40;1.37;;;13.50;99.90;;;;;;5061035;28;20472;-79
2023/03/14 12:04:58;;;;;;;3.70;1.37;;;13.40;99.90;;;;;;5059886;28;20949;-79
2023/03/14 12:07:35;;;;;;;2.60;2.10;;;13.30;1.00;;;;;;5063376;28;20474;-79
2023/03/14 12:10:04;;;;;;;6.50;2.23;;;13.30;1.00;;;;;;5063030;28;20420;-80
2023/03/14 12:12:31;;;;;;;3.47;2.30;;;13.20;1.00;;;;;;5062994;28;20540;-79
2023/03/14 12:15:00;;;;;;;2.63;1.90;;;13.10;1.00;;;;;;5061101;28;20472;-80
2023/03/14 12:17:35;;;;;;;3.93;1.67;;;13.20;1.00;;;;;;5060395;28;20906;-79
2023/03/14 12:20:07;;;;;;;1.87;1.43;;;13.20;1.00;;;;;;5060035;28;20433;-80
2023/03/14 12:22:36;;;;;;;3.93;1.97;;;13.20;1.00;;;;;;5059729;28;20468;-79
2023/03/14 12:25:17;;;;;;;2.33;1.83;;;13.40;1.00;;;;;;5060609;28;20469;-80
2023/03/14 12:27:48;;;;;;;4.53;1.73;;;13.40;1.00;;;;;;5062218;28;20433;-81
2023/03/14 12:30:27;;;;;;;4.47;1.97;;;13.40;1.00;;;;;;5061172;28;20502;-80
2023/03/14 12:33:20;;;;;;;2.80;1.90;;;13.20;1.00;;;;;;5060685;28;20519;-80
2023/03/14 12:35:49;;;;;;;3.17;2.07;;;13.40;1.00;;;;;;5060391;28;20867;-80
2023/03/14 12:38:22;;;;;;;2.33;2.00;;;13.20;1.00;;;;;;5064736;28;20935;-80
2023/03/14 12:40:59;;;;;;;4.80;1.97;;;13.10;1.00;;;;;;5068534;28;21025;-80
2023/03/14 12:43:28;;;;;;;5.00;3.70;;;13.10;99.90;;;;;;5069641;28;20526;-80
2023/03/14 12:46:20;;;;;;;3.40;2.13;;;13.00;1.00;;;;;;5069351;28;20453;-79
2023/03/14 12:48:49;;;;;;;6.20;4.00;;;12.90;99.90;;;;;;5066848;28;20437;-80
2023/03/14 12:51:18;;;;;;;3.53;3.00;;;12.80;1.00;;;;;;5067114;28;20441;-80
2023/03/14 12:54:20;;;;;;;3.43;2.70;;;12.80;1.00;;;;;;5095047;22;20617;-87
2023/03/14 12:57:06;;;;;;;4.50;2.90;;;12.80;1.00;;;;;;5061120;28;20492;-85
2023/03/14 12:59:35;;;;;;;3.23;2.20;;;13.00;1.00;;;;;;5061785;28;20429;-85